Time;durP1;ratioP1;P1;durP2;ratioP2;P2;SDS_P1;SDS_P2;PMS_P1;PMS_P2;Temp;Humidity;BMP_temperature;BMP_pressure;BME280_temperature;BME280_humidity;BME280_pressure;Samples;Min_cycle;Max_cycle;Signal;HPM_P1;HPM_P2
2021/12/11 00:00:33;;;;;;;76.65;34.15;;;;;;;3.87;97.57;100505.75;5031515;28;20033;-41
2021/12/11 00:03:12;;;;;;;73.32;33.35;;;;;;;3.91;97.33;100512.47;5016126;28;20030;-42
2021/12/11 00:05:38;;;;;;;77.75;32.60;;;;;;;3.89;97.77;100517.94;5015940;28;20113;-41
2021/12/11 00:08:06;;;;;;;74.85;32.08;;;;;;;3.92;97.19;100525.66;5014523;28;20087;-42
2021/12/11 00:10:35;;;;;;;78.43;31.42;;;;;;;4.02;97.92;100530.91;5016247;28;20029;-41
2021/12/11 00:13:07;;;;;;;71.63;31.00;;;;;;;3.98;97.50;100534.88;5015166;28;20064;-41
2021/12/11 00:15:40;;;;;;;77.90;32.88;;;;;;;3.91;97.21;100541.75;5015818;28;20025;-41
2021/12/11 00:18:18;;;;;;;77.10;30.55;;;;;;;4.01;97.03;100547.03;5015522;28;20034;-40
2021/12/11 00:20:57;;;;;;;67.60;31.75;;;;;;;4.05;96.90;100548.41;5015501;28;20093;-40
2021/12/11 00:23:29;;;;;;;74.25;30.58;;;;;;;4.00;96.80;100562.16;5015590;28;20034;-41
2021/12/11 00:25:54;;;;;;;64.75;30.52;;;;;;;4.02;97.17;100565.53;5030653;28;20116;-41
2021/12/11 00:28:20;;;;;;;74.97;31.70;;;;;;;4.03;96.83;100572.53;5014319;28;20061;-42
2021/12/11 00:30:46;;;;;;;72.85;32.22;;;;;;;4.00;96.93;100577.31;5015572;28;20378;-40
2021/12/11 00:33:16;;;;;;;66.20;29.25;;;;;;;4.02;97.18;100586.81;5015629;28;20026;-42
2021/12/11 00:35:42;;;;;;;69.80;30.67;;;;;;;4.08;97.25;100590.72;5015166;28;20056;-41
2021/12/11 00:38:11;;;;;;;64.45;29.77;;;;;;;4.09;96.88;100598.56;5030696;28;20494;-41
2021/12/11 00:40:38;;;;;;;70.28;29.65;;;;;;;4.07;97.30;100602.38;5015185;28;20493;-41
2021/12/11 00:43:06;;;;;;;75.97;32.70;;;;;;;4.03;97.26;100596.50;5014265;28;20413;-40
2021/12/11 00:45:34;;;;;;;69.88;30.77;;;;;;;4.12;97.24;100598.28;5014787;28;20026;-42
2021/12/11 00:48:04;;;;;;;68.45;31.30;;;;;;;4.06;96.81;100596.22;5013866;28;20030;-41
2021/12/11 00:50:35;;;;;;;69.93;30.48;;;;;;;4.03;97.13;100604.50;5015082;28;20033;-41
2021/12/11 00:53:09;;;;;;;71.85;30.70;;;;;;;3.98;96.75;100617.41;5015117;28;20116;-40
2021/12/11 00:55:38;;;;;;;66.50;30.65;;;;;;;3.95;96.91;100623.03;5015386;28;20033;-40
2021/12/11 00:58:25;;;;;;;79.03;32.50;;;;;;;3.94;96.97;100634.63;5028483;28;20044;-40
2021/12/11 01:01:06;;;;;;;75.43;31.25;;;;;;;3.93;97.46;100630.31;5018701;28;20166;-41
2021/12/11 01:03:48;;;;;;;80.07;33.25;;;;;;;3.92;97.71;100639.25;5015180;28;20045;-40
2021/12/11 01:06:30;;;;;;;71.93;30.92;;;;;;;3.94;97.83;100647.94;5030386;28;20042;-40
2021/12/11 01:09:13;;;;;;;71.70;31.00;;;;;;;3.89;97.73;100660.84;5014966;28;20083;-40
2021/12/11 01:11:51;;;;;;;81.65;33.00;;;;;;;3.88;97.91;100656.53;5014328;28;20482;-40
2021/12/11 01:14:33;;;;;;;75.30;31.27;;;;;;;3.94;97.86;100653.28;5014446;28;20496;-40
2021/12/11 01:17:06;;;;;;;83.85;32.45;;;;;;;3.94;97.94;100658.59;5029313;28;20036;-40
2021/12/11 01:19:37;;;;;;;75.28;32.25;;;;;;;3.92;97.59;100660.56;5013409;28;20074;-42
2021/12/11 01:22:11;;;;;;;72.90;31.38;;;;;;;3.88;98.05;100659.19;5014846;28;20108;-41
2021/12/11 01:24:45;;;;;;;84.85;32.60;;;;;;;3.84;98.00;100663.94;5014656;28;20022;-40
2021/12/11 01:27:14;;;;;;;71.47;31.42;;;;;;;3.79;97.94;100668.88;5014411;28;20034;-40
2021/12/11 01:29:40;;;;;;;76.35;32.75;;;;;;;3.72;97.73;100670.41;5014752;28;20026;-40
2021/12/11 01:32:07;;;;;;;71.78;30.73;;;;;;;3.65;97.85;100685.25;5013297;28;20025;-40
2021/12/11 01:34:33;;;;;;;81.03;33.15;;;;;;;3.60;97.42;100680.34;5014727;28;20056;-40
2021/12/11 01:36:59;;;;;;;83.25;33.40;;;;;;;3.58;97.73;100692.13;5013676;28;20026;-40
2021/12/11 01:39:28;;;;;;;83.53;32.28;;;;;;;3.58;98.21;100700.09;5014696;28;20033;-40
2021/12/11 01:41:55;;;;;;;76.88;32.15;;;;;;;3.58;98.16;100706.28;5014183;28;20072;-39
2021/12/11 01:44:29;;;;;;;75.68;31.67;;;;;;;3.58;98.15;100706.28;5014446;28;20037;-40
2021/12/11 01:47:05;;;;;;;78.72;33.30;;;;;;;3.57;98.59;100719.72;5014057;28;20476;-39
2021/12/11 01:49:32;;;;;;;75.90;32.40;;;;;;;3.52;98.55;100718.31;5014231;28;20030;-41
2021/12/11 01:52:06;;;;;;;81.43;32.13;;;;;;;3.47;98.65;100725.03;5013968;28;20026;-40
2021/12/11 01:54:37;;;;;;;80.30;33.53;;;;;;;3.48;98.08;100729.41;5014090;28;20069;-40
2021/12/11 01:57:13;;;;;;;79.30;32.65;;;;;;;3.46;98.16;100734.84;5013403;28;20029;-40
2021/12/11 01:59:43;;;;;;;86.70;33.58;;;;;;;3.44;98.84;100743.94;5014131;28;20030;-41
2021/12/11 02:02:19;;;;;;;90.70;33.47;;;;;;;3.41;98.96;100741.56;5012692;28;20048;-41
2021/12/11 02:04:47;;;;;;;81.40;31.70;;;;;;;3.36;98.58;100749.94;5013865;28;20140;-40
2021/12/11 02:07:15;;;;;;;;;;;;;;;3.37;98.63;100758.75;5013978;28;20022;-40
2021/12/11 02:09:50;;;;;;;82.05;32.28;;;;;;;3.34;98.51;100757.22;5013731;28;19913;-40
2021/12/11 02:12:22;;;;;;;76.30;30.67;;;;;;;3.32;99.16;100759.19;5012095;28;20485;-40
2021/12/11 02:14:51;;;;;;;75.38;31.02;;;;;;;3.23;98.75;100766.16;5012486;28;20022;-40
2021/12/11 02:17:22;;;;;;;82.22;31.60;;;;;;;3.19;98.42;100770.06;5012234;28;20033;-39
2021/12/11 02:19:49;;;;;;;81.50;31.58;;;;;;;3.17;98.14;100776.50;5013472;28;20073;-40
2021/12/11 02:22:19;;;;;;;93.80;34.63;;;;;;;3.20;99.06;100777.06;5013566;28;20033;-40
2021/12/11 02:24:51;;;;;;;86.20;32.85;;;;;;;3.24;98.42;100789.13;5013333;28;20029;-40
2021/12/11 02:27:23;;;;;;;76.43;31.23;;;;;;;3.27;99.45;100799.50;5013318;28;20030;-40
2021/12/11 02:30:16;;;;;;;92.80;32.65;;;;;;;3.33;99.39;100791.94;5019965;28;20115;-41
2021/12/11 02:32:49;;;;;;;91.13;34.22;;;;;;;3.38;99.69;100800.38;5014117;28;20066;-40
2021/12/11 02:35:46;;;;;;;88.10;32.78;;;;;;;3.42;99.58;100796.44;5013216;28;20041;-40
2021/12/11 02:38:21;;;;;;;96.95;33.85;;;;;;;3.45;99.77;100814.78;4995130;28;20039;-41
2021/12/11 02:41:02;;;;;;;87.60;32.67;;;;;;;3.50;99.96;100805.44;5011511;28;20493;-41
2021/12/11 02:43:37;;;;;;;81.15;31.73;;;;;;;3.53;99.50;100814.97;5012164;28;20034;-40
2021/12/11 02:46:14;;;;;;;84.25;32.25;;;;;;;3.56;99.83;100819.19;5012796;28;20108;-40
2021/12/11 02:48:45;;;;;;;92.50;32.38;;;;;;;3.57;99.42;100820.84;5013166;28;20058;-41
2021/12/11 02:51:21;;;;;;;88.13;32.05;;;;;;;3.57;99.49;100826.16;5012995;28;20084;-41
2021/12/11 02:53:52;;;;;;;85.88;32.55;;;;;;;3.57;99.58;100821.69;5012924;28;20034;-40
2021/12/11 02:56:42;;;;;;;84.93;32.38;;;;;;;3.59;99.45;100818.91;5012421;28;20029;-40
2021/12/11 02:59:14;;;;;;;84.07;31.90;;;;;;;3.56;99.01;100825.34;5013414;28;20105;-40
2021/12/11 03:01:52;;;;;;;80.55;31.00;;;;;;;3.52;99.30;100823.91;5013218;28;20087;-40
2021/12/11 03:04:47;;;;;;;79.65;31.38;;;;;;;3.50;98.99;100824.06;5013595;28;20037;-40
2021/12/11 03:07:13;;;;;;;84.35;32.15;;;;;;;3.47;98.76;100831.47;5012994;28;20064;-41
2021/12/11 03:09:42;;;;;;;86.85;30.83;;;;;;;3.43;99.26;100819.41;5013380;28;20033;-41
2021/12/11 03:12:10;;;;;;;79.78;30.40;;;;;;;3.44;98.78;100826.41;5011899;28;20030;-40
2021/12/11 03:14:36;;;;;;;81.72;32.60;;;;;;;3.42;99.22;100828.34;5012298;28;20042;-40
2021/12/11 03:17:01;;;;;;;91.15;33.40;;;;;;;3.41;98.47;100821.38;5012828;28;20030;-41
2021/12/11 03:19:30;;;;;;;87.13;32.17;;;;;;;3.45;98.81;100833.41;5011669;28;20065;-40
2021/12/11 03:21:56;;;;;;;85.82;32.03;;;;;;;3.49;98.90;100835.66;5013471;28;20025;-40
2021/12/11 03:24:23;;;;;;;84.65;32.17;;;;;;;3.54;99.32;100843.25;4994757;28;20070;-40
2021/12/11 03:26:51;;;;;;;82.07;31.67;;;;;;;3.58;98.91;100828.72;5012466;28;20021;-40
2021/12/11 03:29:16;;;;;;;;;;;;;;;3.60;99.02;100837.38;5013277;28;20028;-40
2021/12/11 03:31:42;;;;;;;79.15;29.75;;;;;;;3.61;98.70;100832.91;5011100;28;20111;-43
2021/12/11 03:34:12;;;;;;;81.25;31.92;;;;;;;3.62;99.07;100830.09;5012520;28;20064;-46
2021/12/11 03:36:37;;;;;;;75.85;30.73;;;;;;;3.65;98.78;100839.63;5012341;28;20440;-44
2021/12/11 03:39:08;;;;;;;78.40;29.42;;;;;;;3.67;98.56;100843.84;5012562;28;20033;-47
2021/12/11 03:41:34;;;;;;;74.53;28.52;;;;;;;3.69;98.94;100841.88;5012429;28;20026;-44
2021/12/11 03:44:00;;;;;;;84.40;30.73;;;;;;;3.70;98.92;100848.03;5012106;28;20105;-42
2021/12/11 03:46:25;;;;;;;84.35;29.60;;;;;;;3.67;98.78;100849.16;5012274;28;20044;-41
2021/12/11 03:49:00;;;;;;;78.40;29.17;;;;;;;3.68;98.91;100848.16;5012599;28;20037;-41
2021/12/11 03:51:33;;;;;;;82.82;31.23;;;;;;;3.67;99.34;100857.16;5011382;28;20072;-41
2021/12/11 03:54:02;;;;;;;83.85;27.98;;;;;;;3.69;98.92;100849.88;5012365;28;20428;-40
2021/12/11 03:56:27;;;;;;;77.50;27.98;;;;;;;3.73;99.66;100845.94;5010820;28;20033;-40
2021/12/11 03:58:53;;;;;;;80.13;26.48;;;;;;;3.74;99.05;100850.31;5012319;28;20120;-40
2021/12/11 04:01:27;;;;;;;81.07;27.73;;;;;;;3.80;99.19;100848.06;5011875;28;20059;-40
2021/12/11 04:03:56;;;;;;;71.70;24.63;;;;;;;3.84;99.03;100855.63;5012563;28;20033;-40
2021/12/11 04:06:23;;;;;;;41.70;12.88;;;;;;;3.99;99.24;100853.41;5012209;28;20157;-40
2021/12/11 04:08:51;;;;;;;40.00;5.82;;;;;;;4.16;99.33;100857.19;5011779;28;20022;-40
2021/12/11 04:11:23;;;;;;;36.03;3.92;;;;;;;4.39;98.94;100865.75;5012064;28;20037;-40
2021/12/11 04:13:51;;;;;;;25.27;2.67;;;;;;;4.57;97.30;100858.72;5012347;28;20540;-41
2021/12/11 04:16:17;;;;;;;17.15;2.25;;;;;;;4.70;95.93;100869.06;5016834;28;20032;-40
2021/12/11 04:18:43;;;;;;;25.92;2.42;;;;;;;4.82;93.46;100872.44;5032082;28;20030;-40
2021/12/11 04:21:09;;;;;;;17.00;2.28;;;;;;;4.95;91.40;100874.75;5019668;28;20101;-41
2021/12/11 04:23:35;;;;;;;15.40;1.77;;;;;;;5.03;90.38;100880.25;5012172;28;20026;-40
2021/12/11 04:26:00;;;;;;;22.10;2.42;;;;;;;5.11;89.66;100882.16;5011934;28;20183;-40
2021/12/11 04:28:30;;;;;;;18.92;2.15;;;;;;;5.15;88.90;100888.91;5011810;28;20033;-40
2021/12/11 04:31:05;;;;;;;16.30;1.75;;;;;;;5.19;89.69;100890.31;5012431;28;20389;-40
2021/12/11 04:33:34;;;;;;;17.77;1.80;;;;;;;5.25;90.44;100892.38;5011969;28;20036;-40
2021/12/11 04:36:00;;;;;;;18.33;2.05;;;;;;;5.26;90.58;100891.38;5014997;28;20437;-40
2021/12/11 04:38:25;;;;;;;22.65;2.97;;;;;;;5.30;90.94;100891.94;5015865;28;20029;-41
2021/12/11 04:40:55;;;;;;;24.20;2.50;;;;;;;5.38;90.56;100894.72;5030956;28;20169;-40
2021/12/11 04:43:23;;;;;;;13.00;1.60;;;;;;;5.48;89.09;100906.19;5015211;28;20100;-40
2021/12/11 04:45:53;;;;;;;25.45;2.03;;;;;;;5.59;86.97;100899.81;5015198;28;20148;-40
2021/12/11 04:48:37;;;;;;;16.50;1.83;;;;;;;5.71;86.83;100901.28;4996242;28;20038;-40
2021/12/11 04:51:20;;;;;;;19.05;1.88;;;;;;;5.75;86.68;100907.19;4994885;28;20114;-41
2021/12/11 05:06:50;;;;;;;17.75;1.77;;;;;;;5.90;85.80;100922.56;5014945;28;20435;-41
2021/12/11 05:09:25;;;;;;;21.13;2.08;;;;;;;5.97;85.97;100922.81;5028814;28;20054;-41
2021/12/11 05:12:16;;;;;;;14.88;2.08;;;;;;;6.01;84.98;100926.06;5015306;28;20030;-40
2021/12/11 05:14:43;;;;;;;13.88;2.22;;;;;;;6.00;85.70;100927.84;5015075;28;20022;-41
2021/12/11 05:17:09;;;;;;;25.38;2.42;;;;;;;6.07;84.18;100936.13;5014751;28;20087;-40
2021/12/11 05:19:35;;;;;;;14.15;2.60;;;;;;;6.08;83.73;100940.47;5014962;28;20438;-40
2021/12/11 05:22:01;;;;;;;23.05;1.75;;;;;;;6.09;83.73;100939.50;5014610;28;20080;-41
2021/12/11 05:24:27;;;;;;;28.30;2.25;;;;;;;6.02;84.66;100941.06;5014890;28;20026;-40
2021/12/11 05:26:52;;;;;;;14.38;1.80;;;;;;;6.01;84.59;100947.41;5014557;28;20319;-40
2021/12/11 05:29:18;;;;;;;20.73;2.45;;;;;;;6.02;84.59;100949.09;5014737;28;20037;-40
2021/12/11 05:31:43;;;;;;;19.98;2.92;;;;;;;6.04;84.20;100960.47;5013287;28;20493;-40
2021/12/11 05:34:09;;;;;;;23.40;2.45;;;;;;;6.09;84.27;100964.38;5014729;28;20030;-41
2021/12/11 05:36:35;;;;;;;20.52;2.00;;;;;;;6.16;83.39;100953.91;5013714;28;20026;-40
2021/12/11 05:39:06;;;;;;;15.77;1.60;;;;;;;6.25;82.97;100962.88;5014717;28;20382;-40
2021/12/11 05:41:31;;;;;;;26.70;3.35;;;;;;;6.27;84.32;100967.09;5014310;28;20034;-41
2021/12/11 05:43:58;;;;;;;22.23;1.80;;;;;;;6.31;84.58;100968.44;5017928;28;20030;-40
2021/12/11 05:46:24;;;;;;;24.85;3.22;;;;;;;6.33;84.74;100977.16;5013900;28;20036;-40
2021/12/11 05:48:50;;;;;;;19.33;1.70;;;;;;;6.25;85.38;100985.09;5014487;28;20109;-41
2021/12/11 05:51:21;;;;;;;22.35;2.08;;;;;;;6.25;86.45;100989.59;5013614;28;20033;-41
2021/12/11 05:53:48;;;;;;;17.33;2.00;;;;;;;6.19;88.04;100995.53;5013569;28;20034;-42
2021/12/11 05:56:15;;;;;;;23.15;2.53;;;;;;;6.18;89.08;100993.88;5013644;28;20034;-45
2021/12/11 05:58:56;;;;;;;19.77;1.60;;;;;;;6.14;90.16;101006.69;5019009;28;20026;-49
2021/12/11 06:01:29;;;;;;;17.80;1.33;;;;;;;6.06;90.93;101012.78;5018888;28;20139;-49
2021/12/11 06:03:55;;;;;;;13.88;1.80;;;;;;;6.02;90.31;101021.22;5012707;28;20040;-46
2021/12/11 06:06:20;;;;;;;14.40;1.85;;;;;;;5.94;90.62;101009.44;5013518;28;20018;-43
2021/12/11 06:08:46;;;;;;;14.60;1.67;;;;;;;5.83;91.32;101022.97;5013702;28;20156;-46
2021/12/11 06:11:14;;;;;;;20.00;2.53;;;;;;;5.87;90.63;101019.03;5012472;28;20029;-45
2021/12/11 06:13:40;;;;;;;22.33;1.85;;;;;;;5.90;90.46;101036.59;5012483;28;20030;-45
2021/12/11 06:16:07;;;;;;;23.60;2.33;;;;;;;5.87;90.98;101037.72;5013908;28;20029;-48
2021/12/11 06:18:32;;;;;;;18.42;1.75;;;;;;;5.81;90.78;101046.31;5013280;28;20121;-48
2021/12/11 06:20:58;;;;;;;11.93;1.58;;;;;;;5.73;91.22;101048.84;5012704;28;20498;-47
2021/12/11 06:23:24;;;;;;;9.60;1.10;;;;;;;5.70;91.76;101059.84;5013337;28;20022;-46
2021/12/11 06:25:51;;;;;;;13.43;1.73;;;;;;;5.65;92.13;101065.59;4995904;28;20034;-45
2021/12/11 06:28:17;;;;;;;20.38;1.42;;;;;;;5.59;92.55;101076.03;5012939;28;20029;-44
2021/12/11 06:30:42;;;;;;;8.77;1.00;;;;;;;5.64;92.38;101079.13;5012980;28;20183;-45
2021/12/11 06:33:08;;;;;;;5.70;0.90;;;;;;;5.60;92.88;101086.56;5012516;28;20041;-53
2021/12/11 06:35:39;;;;;;;14.98;1.30;;;;;;;5.58;93.11;101090.34;5012973;28;20437;-47
2021/12/11 06:38:06;;;;;;;13.90;1.48;;;;;;;5.52;93.56;101089.09;5012233;28;20035;-44
2021/12/11 06:40:32;;;;;;;14.45;1.40;;;;;;;5.52;94.02;101096.28;5011664;28;20041;-44
2021/12/11 06:42:57;;;;;;;15.60;1.80;;;;;;;5.50;94.25;101102.59;5012307;28;20438;-44
2021/12/11 06:45:24;;;;;;;12.48;1.00;;;;;;;5.47;94.16;101107.38;5014490;28;20362;-43
2021/12/11 06:47:50;;;;;;;16.73;1.57;;;;;;;5.48;94.14;101106.41;5007685;28;20111;-42
2021/12/11 14:45:54;;;;;;;16.70;4.45;;;;;;;6.93;81.66;101706.22;5109953;27;20415;-41
2021/12/11 14:48:20;;;;;;;26.67;4.80;;;;;;;6.92;81.73;101709.88;5106961;28;20040;-41
2021/12/11 14:50:52;;;;;;;20.23;4.32;;;;;;;6.87;82.11;101712.09;5102538;28;20068;-41
2021/12/11 14:53:22;;;;;;;12.88;3.05;;;;;;;6.84;81.60;101721.25;5110093;28;20028;-40
2021/12/11 14:55:51;;;;;;;21.98;3.28;;;;;;;6.82;81.95;101715.22;5096181;28;20050;-41
2021/12/11 14:58:17;;;;;;;15.75;2.75;;;;;;;6.82;82.67;101725.91;5096056;28;20070;-40
2021/12/11 15:00:59;;;;;;;18.25;3.05;;;;;;;6.80;82.44;101719.84;5091959;28;20055;-40
2021/12/11 15:03:25;;;;;;;19.77;2.88;;;;;;;6.78;82.52;101719.97;5100312;28;20037;-41
2021/12/11 15:05:51;;;;;;;18.80;3.00;;;;;;;6.72;82.45;101715.16;5088310;28;20031;-41
2021/12/11 15:08:21;;;;;;;18.70;3.28;;;;;;;6.69;82.42;101726.16;5091581;28;20460;-40
2021/12/11 15:10:47;;;;;;;14.20;3.15;;;;;;;6.66;83.13;101720.19;5102474;28;20030;-41
2021/12/11 15:13:13;;;;;;;18.05;2.97;;;;;;;6.62;82.64;101724.16;5095114;28;20016;-40
2021/12/11 15:15:39;;;;;;;16.27;3.35;;;;;;;6.60;83.09;101725.09;5091558;28;20081;-43
2021/12/11 15:18:06;;;;;;;19.80;4.25;;;;;;;6.62;82.65;101735.69;5089284;28;20051;-40
2021/12/11 15:20:37;;;;;;;12.07;2.70;;;;;;;6.60;82.74;101737.63;5089211;28;20020;-40
2021/12/11 15:23:03;;;;;;;16.27;3.80;;;;;;;6.60;82.70;101737.63;5087916;28;20395;-39
2021/12/11 15:25:29;;;;;;;16.17;3.45;;;;;;;6.59;82.57;101749.34;5096889;28;20017;-40
2021/12/11 15:27:55;;;;;;;17.70;2.97;;;;;;;6.57;82.78;101748.59;5095647;28;20035;-40
2021/12/11 15:30:28;;;;;;;20.38;3.08;;;;;;;6.54;83.24;101748.88;5101334;28;20024;-41
2021/12/11 15:32:54;;;;;;;20.27;5.10;;;;;;;6.53;82.63;101744.50;5102486;28;20032;-42
2021/12/11 15:35:23;;;;;;;18.10;4.72;;;;;;;6.50;82.54;101737.63;5105804;28;20034;-41
2021/12/11 15:37:50;;;;;;;26.02;7.07;;;;;;;6.51;83.04;101743.81;5093641;28;20177;-40
2021/12/11 15:40:21;;;;;;;29.83;7.70;;;;;;;6.52;83.71;101740.13;5098062;28;20048;-41
2021/12/11 15:42:47;;;;;;;25.23;6.63;;;;;;;6.49;82.78;101741.25;5100697;28;20035;-41
2021/12/11 15:45:15;;;;;;;27.08;6.00;;;;;;;6.51;83.17;101743.81;5105478;28;20054;-40
2021/12/11 15:47:40;;;;;;;21.35;5.80;;;;;;;6.49;83.45;101761.81;5092471;28;20039;-40
2021/12/11 15:50:08;;;;;;;17.25;4.38;;;;;;;6.47;83.07;101755.72;5095584;28;20028;-40
2021/12/11 15:52:34;;;;;;;20.52;3.63;;;;;;;6.49;83.68;101762.66;5096330;28;20391;-41
2021/12/11 15:55:01;;;;;;;11.32;3.38;;;;;;;6.44;83.70;101759.53;5092844;28;20027;-40
2021/12/11 15:57:26;;;;;;;19.92;3.85;;;;;;;6.42;84.15;101755.28;5082449;28;20110;-40
2021/12/11 15:59:52;;;;;;;22.95;4.82;;;;;;;6.41;84.56;101758.94;5088428;28;20151;-41
2021/12/11 16:02:22;;;;;;;21.65;4.10;;;;;;;6.42;84.80;101760.63;5082109;28;20024;-40
2021/12/11 16:04:48;;;;;;;24.25;4.15;;;;;;;6.36;84.79;101759.34;5088978;28;20118;-41
2021/12/11 16:07:15;;;;;;;15.07;4.25;;;;;;;6.33;84.81;101765.78;5083447;28;20532;-41
2021/12/11 16:09:43;;;;;;;24.27;4.20;;;;;;;6.37;85.16;101761.91;5089901;28;20020;-41
2021/12/11 16:12:15;;;;;;;16.08;4.70;;;;;;;6.32;84.95;101766.78;5082079;28;20112;-41
2021/12/11 16:14:41;;;;;;;25.25;4.88;;;;;;;6.31;85.04;101764.22;5088154;28;20032;-41
2021/12/11 16:17:07;;;;;;;30.40;5.18;;;;;;;6.25;85.20;101765.59;5084748;28;20031;-40
2021/12/11 16:19:35;;;;;;;17.77;4.97;;;;;;;6.21;85.51;101758.81;5083967;28;20024;-41
2021/12/11 16:22:07;;;;;;;27.02;5.45;;;;;;;6.22;85.90;101771.22;5080816;28;20075;-41
2021/12/11 16:24:37;;;;;;;24.55;5.63;;;;;;;6.24;86.02;101774.63;5075438;28;20025;-39
2021/12/11 16:27:03;;;;;;;25.25;5.45;;;;;;;6.21;86.20;101785.53;5090921;28;20039;-41
2021/12/11 16:29:29;;;;;;;16.73;5.50;;;;;;;6.21;86.28;101790.03;5078465;28;20028;-41
2021/12/11 16:31:55;;;;;;;26.30;6.38;;;;;;;6.24;85.82;101798.69;5087748;28;20381;-41
2021/12/11 16:34:21;;;;;;;25.80;6.90;;;;;;;6.23;85.89;101801.47;5078041;28;20032;-41
2021/12/11 16:36:49;;;;;;;21.88;5.95;;;;;;;6.17;86.41;101791.31;5091718;28;20031;-41
2021/12/11 16:39:18;;;;;;;24.45;5.82;;;;;;;6.17;86.45;101793.97;5093162;28;20059;-40
2021/12/11 16:41:49;;;;;;;20.23;6.15;;;;;;;6.08;86.63;101795.56;5079759;28;20052;-41
2021/12/11 16:44:17;;;;;;;30.05;6.22;;;;;;;6.05;87.13;101785.16;5092591;28;20043;-40
2021/12/11 16:46:49;;;;;;;32.85;8.52;;;;;;;6.00;87.30;101787.38;5082349;28;20177;-44
2021/12/11 16:49:15;;;;;;;51.25;17.42;;;;;;;6.02;87.04;101785.41;5081019;28;20055;-40
2021/12/11 16:51:42;;;;;;;25.55;5.90;;;;;;;5.94;87.36;101794.91;5087697;28;20121;-41
2021/12/11 16:54:08;;;;;;;27.33;6.10;;;;;;;5.91;87.56;101800.50;5082559;28;20020;-41
2021/12/11 16:56:35;;;;;;;29.85;7.70;;;;;;;5.92;87.55;101802.19;5081621;28;20025;-42
2021/12/11 16:59:06;;;;;;;22.80;6.90;;;;;;;5.90;87.68;101797.97;5077290;28;20119;-40
2021/12/11 17:01:36;;;;;;;24.13;6.15;;;;;;;5.86;87.78;101802.69;5076439;28;20320;-41
2021/12/11 17:04:02;;;;;;;26.15;5.68;;;;;;;5.85;87.65;101795.66;5075536;28;20463;-39
2021/12/11 17:06:32;;;;;;;20.08;5.35;;;;;;;5.85;87.60;101806.34;5079595;28;20047;-41
2021/12/11 17:09:00;;;;;;;20.50;5.53;;;;;;;5.86;87.74;101801.84;5072332;28;20128;-42
2021/12/11 17:11:25;;;;;;;31.95;5.43;;;;;;;5.84;88.05;101809.13;5072869;28;20024;-41
2021/12/11 17:13:53;;;;;;;29.65;5.95;;;;;;;5.83;88.03;101808.28;5073929;28;20472;-41
2021/12/11 17:16:18;;;;;;;21.77;5.63;;;;;;;5.81;88.21;101815.59;5072411;28;20032;-41
2021/12/11 17:18:44;;;;;;;25.30;5.28;;;;;;;5.78;88.22;101826.53;5073516;28;20027;-41
2021/12/11 17:21:14;;;;;;;46.95;6.15;;;;;;;5.74;88.29;101830.44;5081608;28;20067;-41
2021/12/11 17:23:40;;;;;;;38.47;7.35;;;;;;;5.79;88.45;101841.56;5094118;28;20028;-41
2021/12/11 17:26:06;;;;;;;29.02;6.63;;;;;;;5.82;88.67;101838.66;5094069;28;20375;-41
2021/12/11 17:28:54;;;;;;;25.85;5.90;;;;;;;5.80;88.61;101840.63;5089621;28;20020;-43
2021/12/11 17:31:20;;;;;;;28.08;6.90;;;;;;;5.82;88.28;101844.00;5073544;28;20081;-41
2021/12/11 17:33:47;;;;;;;22.05;6.18;;;;;;;5.80;88.85;101847.78;5071810;28;20490;-41
2021/12/11 17:36:13;;;;;;;30.40;6.43;;;;;;;5.81;88.72;101847.63;5072940;28;20032;-41
2021/12/11 17:38:40;;;;;;;31.60;6.70;;;;;;;5.75;88.93;101841.97;5063111;28;20112;-40
2021/12/11 17:41:06;;;;;;;26.70;5.53;;;;;;;5.78;89.15;101855.91;5070745;28;20028;-41
2021/12/11 17:43:33;;;;;;;20.60;4.70;;;;;;;5.78;89.15;101858.59;5068614;28;20392;-40
2021/12/11 17:45:59;;;;;;;30.73;6.63;;;;;;;5.79;89.40;101860.25;5052936;28;20037;-41
2021/12/11 17:48:24;;;;;;;25.80;5.88;;;;;;;5.76;89.42;101860.53;5065472;28;20047;-40
2021/12/11 17:50:57;;;;;;;28.75;6.70;;;;;;;5.77;89.26;101859.56;5072690;28;20108;-39
2021/12/11 17:53:22;;;;;;;35.78;6.90;;;;;;;5.79;89.32;101857.59;5066194;28;20020;-40
2021/12/11 17:55:49;;;;;;;34.97;7.28;;;;;;;5.75;89.05;101858.00;5085601;28;20104;-40
2021/12/11 17:58:28;;;;;;;25.90;5.87;;;;;;;5.68;89.04;101862.97;5083463;28;20521;-39
2021/12/11 18:01:20;;;;;;;38.13;6.32;;;;;;;5.68;89.57;101868.31;5069634;28;20029;-42
2021/12/11 18:03:51;;;;;;;30.90;7.32;;;;;;;5.67;89.39;101866.63;5069548;28;20039;-40
2021/12/11 18:06:18;;;;;;;26.98;6.93;;;;;;;5.69;89.49;101849.50;5068054;28;20078;-39
2021/12/11 18:08:45;;;;;;;38.20;8.05;;;;;;;5.69;89.05;101864.69;5073546;28;20032;-41
2021/12/11 18:11:35;;;;;;;30.08;8.98;;;;;;;5.65;89.62;101863.22;5068170;28;20054;-40
2021/12/11 18:14:10;;;;;;;25.95;5.88;;;;;;;5.66;89.63;101862.25;5068247;28;20043;-41
2021/12/11 18:16:51;;;;;;;23.58;5.65;;;;;;;5.61;89.50;101867.09;5069901;28;20119;-41
2021/12/11 18:19:29;;;;;;;31.17;7.78;;;;;;;5.57;89.57;101855.84;5069272;28;20044;-41
2021/12/11 18:21:58;;;;;;;35.42;7.68;;;;;;;5.61;89.94;101848.41;5068044;28;20115;-41
2021/12/11 18:24:25;;;;;;;26.45;5.82;;;;;;;5.56;89.78;101848.81;5069184;28;20166;-40
2021/12/11 18:26:54;;;;;;;23.33;6.05;;;;;;;5.57;89.89;101845.16;5069110;28;20111;-41
2021/12/11 18:29:23;;;;;;;29.30;8.38;;;;;;;5.59;89.76;101843.22;5068013;28;20039;-40
2021/12/11 18:31:50;;;;;;;36.92;6.97;;;;;;;5.61;89.82;101846.63;5074291;28;20032;-41
2021/12/11 18:34:17;;;;;;;34.95;8.32;;;;;;;5.59;89.88;101847.72;5049495;28;20113;-41
2021/12/11 18:36:48;;;;;;;29.33;8.95;;;;;;;5.57;89.58;101853.16;5056682;28;20110;-40
2021/12/11 18:39:19;;;;;;;31.42;7.80;;;;;;;5.57;89.82;101849.66;5069448;28;20032;-41
2021/12/11 18:41:45;;;;;;;33.40;9.52;;;;;;;5.57;89.84;101855.00;5069483;28;20053;-41
2021/12/11 18:44:12;;;;;;;37.42;10.95;;;;;;;5.55;89.55;101843.59;5067664;28;20083;-42
2021/12/11 18:46:41;;;;;;;34.42;8.93;;;;;;;5.48;89.88;101849.44;5064917;28;20067;-41
2021/12/11 18:49:13;;;;;;;28.02;8.38;;;;;;;5.44;90.40;101850.63;5078523;28;20035;-41
2021/12/11 18:51:43;;;;;;;35.38;9.93;;;;;;;5.42;90.38;101851.72;5080276;28;20032;-40
2021/12/11 18:54:18;;;;;;;46.88;10.07;;;;;;;5.38;90.31;101850.31;5056469;28;20103;-41
2021/12/11 18:56:46;;;;;;;29.38;9.05;;;;;;;5.41;90.48;101855.38;5049053;28;20040;-40
2021/12/11 18:59:15;;;;;;;28.48;8.27;;;;;;;5.43;90.25;101848.94;5076223;28;20047;-41
2021/12/11 19:01:51;;;;;;;32.00;9.48;;;;;;;5.41;90.35;101850.88;5063457;28;20444;-41
2021/12/11 19:04:21;;;;;;;33.53;10.30;;;;;;;5.37;90.27;101849.47;5071092;28;20062;-41
2021/12/11 19:06:50;;;;;;;39.70;11.15;;;;;;;5.36;90.61;101841.56;5070679;28;20024;-41
2021/12/11 19:09:18;;;;;;;28.63;10.38;;;;;;;5.37;90.64;101849.47;5071869;28;20089;-41
2021/12/11 19:11:47;;;;;;;40.15;12.45;;;;;;;5.36;90.69;101850.41;5058988;28;20033;-41
2021/12/11 19:14:13;;;;;;;62.65;22.42;;;;;;;5.35;90.56;101861.22;5061263;28;20033;-42
2021/12/11 19:16:40;;;;;;;45.88;14.02;;;;;;;5.29;90.85;101862.53;5068550;28;20040;-42
2021/12/11 19:19:07;;;;;;;40.20;14.95;;;;;;;5.26;91.07;101862.78;5067329;28;20416;-42
2021/12/11 19:21:38;;;;;;;46.53;16.10;;;;;;;5.22;91.00;101861.34;5067582;28;20446;-42
2021/12/11 19:24:05;;;;;;;49.10;16.67;;;;;;;5.21;91.34;101848.97;5061260;28;20032;-41
2021/12/11 19:26:32;;;;;;;50.47;18.20;;;;;;;5.24;91.16;101857.59;5065716;28;20074;-40
2021/12/11 19:29:01;;;;;;;36.00;12.75;;;;;;;5.22;90.84;101853.34;5068075;28;20044;-41
2021/12/11 19:31:32;;;;;;;34.35;13.27;;;;;;;5.22;91.13;101856.84;5072516;28;20499;-41
2021/12/11 19:33:59;;;;;;;42.45;13.68;;;;;;;5.21;90.97;101863.19;5043665;28;20044;-41
2021/12/11 19:36:33;;;;;;;45.35;13.80;;;;;;;5.21;90.94;101867.66;5076979;28;21009;-43
2021/12/11 19:39:02;;;;;;;43.95;13.88;;;;;;;5.20;91.09;101869.47;5077020;28;20044;-41
2021/12/11 19:41:28;;;;;;;41.38;13.75;;;;;;;5.22;91.10;101869.34;5064794;28;20040;-40